Maryland METAR Reports


Distance/Direction noted is from Ellicott City, MD as the crow flies

KCBE - Cumberland - 118 miles WNW
Updated: Mon, 10/20/2014 5:25 AM
Clear
Clear
 Wind from calm
Wind: Calm
Temperature: 37°F
Dew Point: 36°F
Humidity: 93%
Barometer: 30.12 inHg
Clouds: Clear
Visibility: 10 miles
2014/10/20 09:25 KCBE 200925Z AUTO 00000KT 10SM CLR 03/02 A3012 RMK AO1
KHGR - Hagerstown - 57 miles NW
Updated: Mon, 10/20/2014 4:53 AM
Clear
Clear
 Wind from SSE
Wind: SSE 5 mph
Temperature: 39°F
Wind Chill: 35°F
Dew Point: 34°F
Humidity: 81%
Barometer: 30.07 inHg
Clouds: Clear
Visibility: 10 miles
2014/10/20 08:53 KHGR 200853Z AUTO 16004KT 10SM CLR 04/01 A3007 RMK AO2 SLP196 T00440006 56006
 
KFDK - Frederick - 34 miles NW
Updated: Mon, 10/20/2014 5:05 AM
Clear
Clear
 Wind from calm
Wind: Calm
Temperature: 39°F
Dew Point: 36°F
Humidity: 87%
Barometer: 30.13 inHg
Clouds: Clear
Visibility: 10 miles
2014/10/20 09:05 KFDK 200905Z AUTO 00000KT 10SM CLR 04/02 A3013 RMK AO2
KGAI - Gaithersburg - 26 miles SW
Updated: Mon, 10/20/2014 5:15 AM
Clear
Clear
 Wind from calm
Wind: Calm
Temperature: 36°F
Dew Point: 34°F
Humidity: 93%
Barometer: 30.13 inHg
Clouds: Clear
Visibility: 10 miles
2014/10/20 09:15 KGAI 200915Z 00000KT 10SM CLR 02/01 A3013 RMK AO1
 
KBWI - BWI Airport - 15 miles SE
Updated: Mon, 10/20/2014 4:54 AM
Partly Cloudy
Partly Cloudy
 Wind from calm
Wind: Calm
Temperature: 37°F
Dew Point: 34°F
Humidity: 87%
Barometer: 30.10 inHg
Clouds: Partly Cloudy
Visibility: 10 miles
Cloud Details: Few Clouds 400 ft
Partly Cloudy 25000 ft
2014/10/20 08:54 KBWI 200854Z 00000KT 10SM FEW004 SCT250 03/01 A3010 RMK AO2 SLP193 T00280011 55002
KNAK - Annapolis - 32 miles SSE
Updated: Mon, 10/20/2014 4:54 AM
Clear
Clear
 Wind from calm
Wind: Calm
Temperature: 41°F
Dew Point: 37°F
Humidity: 87%
Barometer: 30.11 inHg
Clouds: Clear
Visibility: 10 miles
2014/10/20 08:54 KNAK 200854Z AUTO 00000KT 10SM CLR 05/03 A3011 RMK AO2 SLP197 T00500033 55001 $
 
KESN - Easton - 63 miles SE
Updated: Mon, 10/20/2014 5:38 AM
Clear
Clear
 Wind from calm
Wind: Calm
Temperature: 39°F
Dew Point: 39°F
Humidity: 100%
Barometer: 30.16 inHg
Clouds: Clear
Visibility: 10 miles
2014/10/20 09:38 KESN 200938Z AUTO 00000KT 10SM CLR 04/04 A3016 RMK AO2 T00430043
KSBY - Salisbury - 112 miles SE
Updated: Mon, 10/20/2014 4:54 AM
Clear
Clear
 Wind from calm
Wind: Calm
Temperature: 37°F
Dew Point: 34°F
Humidity: 87%
Barometer: 30.12 inHg
Clouds: Clear
Visibility: 10 miles
2014/10/20 08:54 KSBY 200854Z AUTO 00000KT 10SM CLR 03/01 A3012 RMK AO2 SLP202 T00280006 52002